ISS518 LIEO-LIPX
Flight info
| Callsign | ISS518 |
|---|---|
| Flight time | 0h 55m |
| Altitude | 32000 |
| Route | BATOX DCT MAMAR DCT XIBIL DCT IVLOX L995 OSBUL |
| Aircraft | B737/M-SDE2E3FGHIRWXY/LB1 |
Departure
| Time | 2026-04-25 15:21 |
|---|---|
| Airport | Olbia Costa Smeralda Airport (LIEO) |
Arrival
| Time | 2026-04-25 16:17 |
|---|---|
| Airport | Verona Villafranca Valerio Catullo Airport (LIPX) |
| Time | Latitude | Longitude | Altitude | Speed | Heading |
|---|---|---|---|---|---|
| 2026-04-25 15:02 | 40.90134 | 9.51713 | 33 ft | 0 kts | 85° |
| 2026-04-25 15:16 | 40.90148 | 9.51720 | 32 ft | 2 kts | 346° |
| 2026-04-25 15:17 | 40.90150 | 9.51623 | 32 ft | 10 kts | 234° |
| 2026-04-25 15:17 | 40.90100 | 9.51527 | 33 ft | 15 kts | 236° |
| 2026-04-25 15:17 | 40.90015 | 9.51509 | 32 ft | 15 kts | 149° |
| 2026-04-25 15:18 | 40.89924 | 9.51477 | 32 ft | 14 kts | 226° |
| 2026-04-25 15:18 | 40.89800 | 9.51246 | 33 ft | 18 kts | 235° |
| 2026-04-25 15:18 | 40.89726 | 9.51106 | 33 ft | 18 kts | 235° |
| 2026-04-25 15:19 | 40.89654 | 9.50969 | 33 ft | 18 kts | 235° |
| 2026-04-25 15:19 | 40.89608 | 9.50880 | 33 ft | 17 kts | 235° |
| 2026-04-25 15:19 | 40.89519 | 9.50708 | 33 ft | 17 kts | 235° |
| 2026-04-25 15:19 | 40.89455 | 9.50585 | 33 ft | 16 kts | 235° |
| 2026-04-25 15:20 | 40.89393 | 9.50467 | 33 ft | 15 kts | 234° |
| 2026-04-25 15:20 | 40.89310 | 9.50449 | 32 ft | 13 kts | 158° |
| 2026-04-25 15:20 | 40.89270 | 9.50546 | 33 ft | 13 kts | 104° |
| 2026-04-25 15:20 | 40.89285 | 9.50652 | 31 ft | 12 kts | 55° |
| 2026-04-25 15:21 | 40.89413 | 9.50896 | 32 ft | 66 kts | 55° |
| 2026-04-25 15:21 | 40.89806 | 9.51651 | 33 ft | 130 kts | 56° |
| 2026-04-25 15:21 | 40.90395 | 9.52773 | 324 ft | 157 kts | 55° |
| 2026-04-25 15:21 | 40.91019 | 9.53981 | 1080 ft | 162 kts | 56° |
| 2026-04-25 15:22 | 40.91666 | 9.55229 | 1709 ft | 177 kts | 55° |
| 2026-04-25 15:22 | 40.92431 | 9.56668 | 2103 ft | 207 kts | 55° |
| 2026-04-25 15:22 | 40.93330 | 9.58353 | 2411 ft | 238 kts | 54° |
| 2026-04-25 15:22 | 40.94303 | 9.60172 | 3255 ft | 244 kts | 55° |
| 2026-04-25 15:23 | 40.95292 | 9.62024 | 4166 ft | 249 kts | 55° |
| 2026-04-25 15:23 | 40.96295 | 9.63905 | 5110 ft | 252 kts | 55° |
| 2026-04-25 15:23 | 40.97311 | 9.65810 | 6058 ft | 254 kts | 55° |
| 2026-04-25 15:23 | 40.98336 | 9.67735 | 6965 ft | 258 kts | 55° |
| 2026-04-25 15:24 | 40.99362 | 9.69744 | 7613 ft | 273 kts | 57° |
| 2026-04-25 15:24 | 41.00406 | 9.71902 | 8329 ft | 282 kts | 57° |
| 2026-04-25 15:24 | 41.01462 | 9.74112 | 9229 ft | 285 kts | 57° |
| 2026-04-25 15:24 | 41.02167 | 9.75586 | 9869 ft | 286 kts | 57° |
| 2026-04-25 15:25 | 41.03618 | 9.78619 | 10683 ft | 304 kts | 57° |
| 2026-04-25 15:25 | 41.04803 | 9.81091 | 10877 ft | 331 kts | 57° |
| 2026-04-25 15:25 | 41.06064 | 9.83723 | 11389 ft | 343 kts | 57° |
| 2026-04-25 15:25 | 41.07354 | 9.86411 | 12141 ft | 348 kts | 57° |
| 2026-04-25 15:26 | 41.08656 | 9.89126 | 12970 ft | 351 kts | 58° |
| 2026-04-25 15:26 | 41.09972 | 9.91873 | 13781 ft | 355 kts | 58° |
| 2026-04-25 15:26 | 41.11306 | 9.94658 | 14498 ft | 360 kts | 58° |
| 2026-04-25 15:26 | 41.12658 | 9.97482 | 15218 ft | 366 kts | 58° |
| 2026-04-25 15:27 | 41.14029 | 10.00349 | 15947 ft | 370 kts | 58° |
| 2026-04-25 15:27 | 41.15415 | 10.03249 | 16701 ft | 375 kts | 58° |
| 2026-04-25 15:27 | 41.18241 | 10.09172 | 18154 ft | 385 kts | 58° |
| 2026-04-25 15:28 | 41.19679 | 10.12191 | 18807 ft | 389 kts | 58° |
| 2026-04-25 15:28 | 41.21132 | 10.15238 | 19464 ft | 393 kts | 58° |
| 2026-04-25 15:28 | 41.22732 | 10.18198 | 20125 ft | 396 kts | 52° |
| 2026-04-25 15:28 | 41.24499 | 10.21030 | 20769 ft | 400 kts | 50° |
| 2026-04-25 15:29 | 41.26341 | 10.23835 | 21394 ft | 404 kts | 50° |
| 2026-04-25 15:29 | 41.28204 | 10.26654 | 22011 ft | 408 kts | 50° |
| 2026-04-25 15:29 | 41.30078 | 10.29513 | 22626 ft | 412 kts | 50° |
| 2026-04-25 15:29 | 41.31954 | 10.32409 | 23231 ft | 415 kts | 50° |
| 2026-04-25 15:30 | 41.33838 | 10.35349 | 23811 ft | 419 kts | 50° |
| 2026-04-25 15:30 | 41.35728 | 10.38320 | 24319 ft | 422 kts | 51° |
| 2026-04-25 15:30 | 41.37624 | 10.41314 | 24851 ft | 424 kts | 51° |
| 2026-04-25 15:30 | 41.39524 | 10.44322 | 25365 ft | 426 kts | 51° |
| 2026-04-25 15:31 | 41.41438 | 10.47358 | 25857 ft | 429 kts | 51° |
| 2026-04-25 15:31 | 41.43361 | 10.50411 | 26335 ft | 431 kts | 51° |
| 2026-04-25 15:31 | 41.45294 | 10.53481 | 26814 ft | 434 kts | 50° |
| 2026-04-25 15:31 | 41.47215 | 10.56537 | 27275 ft | 436 kts | 50° |
| 2026-04-25 15:32 | 41.49169 | 10.59647 | 27721 ft | 439 kts | 50° |
| 2026-04-25 15:32 | 41.51136 | 10.62782 | 28164 ft | 442 kts | 50° |
| 2026-04-25 15:32 | 41.53113 | 10.65934 | 28640 ft | 443 kts | 50° |
| 2026-04-25 15:33 | 41.57046 | 10.72217 | 29948 ft | 438 kts | 50° |
| 2026-04-25 15:33 | 41.58990 | 10.75327 | 30539 ft | 435 kts | 51° |
| 2026-04-25 15:33 | 41.60926 | 10.78427 | 31015 ft | 434 kts | 51° |
| 2026-04-25 15:33 | 41.62859 | 10.81526 | 31467 ft | 434 kts | 51° |
| 2026-04-25 15:34 | 41.64789 | 10.84623 | 31940 ft | 433 kts | 51° |
| 2026-04-25 15:34 | 41.66721 | 10.87728 | 32093 ft | 435 kts | 51° |
| 2026-04-25 15:34 | 41.69954 | 10.92929 | 32106 ft | 433 kts | 51° |
| 2026-04-25 15:35 | 41.76348 | 11.03241 | 32114 ft | 434 kts | 51° |
| 2026-04-25 15:35 | 41.78378 | 11.06227 | 32085 ft | 435 kts | 39° |
| 2026-04-25 15:36 | 41.83876 | 11.09341 | 32097 ft | 436 kts | 5° |
| 2026-04-25 15:36 | 41.89923 | 11.08952 | 32103 ft | 436 kts | 354° |
| 2026-04-25 15:37 | 41.95967 | 11.08143 | 32096 ft | 437 kts | 354° |
| 2026-04-25 15:37 | 42.02014 | 11.07374 | 32096 ft | 436 kts | 355° |
| 2026-04-25 15:38 | 42.08053 | 11.06663 | 32095 ft | 435 kts | 355° |
| 2026-04-25 15:38 | 42.14085 | 11.05975 | 32096 ft | 435 kts | 355° |
| 2026-04-25 15:39 | 42.20069 | 11.05293 | 32094 ft | 434 kts | 355° |
| 2026-04-25 15:39 | 42.26083 | 11.04605 | 32097 ft | 434 kts | 355° |
| 2026-04-25 15:40 | 42.30101 | 11.04144 | 32100 ft | 433 kts | 355° |
| 2026-04-25 15:40 | 42.38100 | 11.03224 | 32095 ft | 433 kts | 355° |
| 2026-04-25 15:41 | 42.44106 | 11.02532 | 32095 ft | 433 kts | 354° |
| 2026-04-25 15:41 | 42.50115 | 11.01837 | 32094 ft | 433 kts | 354° |
| 2026-04-25 15:42 | 42.56123 | 11.01142 | 32085 ft | 433 kts | 354° |
| 2026-04-25 15:42 | 42.62134 | 11.00445 | 32080 ft | 433 kts | 354° |
| 2026-04-25 15:43 | 42.68139 | 10.99747 | 32077 ft | 433 kts | 354° |
| 2026-04-25 15:43 | 42.74141 | 10.99049 | 32078 ft | 433 kts | 354° |
| 2026-04-25 15:44 | 42.80143 | 10.98308 | 32072 ft | 432 kts | 351° |
| 2026-04-25 15:44 | 42.86027 | 10.96691 | 32077 ft | 431 kts | 346° |
| 2026-04-25 15:45 | 42.91870 | 10.94828 | 32081 ft | 431 kts | 345° |
| 2026-04-25 15:45 | 42.95776 | 10.93596 | 32081 ft | 431 kts | 346° |
| 2026-04-25 15:46 | 43.03552 | 10.91205 | 32090 ft | 430 kts | 346° |
| 2026-04-25 15:46 | 43.09392 | 10.89430 | 32087 ft | 430 kts | 346° |
| 2026-04-25 15:47 | 43.15229 | 10.87658 | 32085 ft | 430 kts | 346° |
| 2026-04-25 15:47 | 43.21057 | 10.85886 | 32095 ft | 429 kts | 345° |
| 2026-04-25 15:48 | 43.26888 | 10.84106 | 32086 ft | 429 kts | 346° |
| 2026-04-25 15:48 | 43.32717 | 10.82324 | 32090 ft | 429 kts | 346° |
| 2026-04-25 15:49 | 43.38508 | 10.80550 | 32087 ft | 429 kts | 345° |
| 2026-04-25 15:49 | 43.44326 | 10.78765 | 32082 ft | 428 kts | 345° |
| 2026-04-25 15:50 | 43.50140 | 10.76978 | 32095 ft | 428 kts | 345° |
| 2026-04-25 15:50 | 43.55960 | 10.75184 | 32088 ft | 429 kts | 345° |
| 2026-04-25 15:51 | 43.59853 | 10.73982 | 32095 ft | 429 kts | 345° |
| 2026-04-25 15:51 | 43.67596 | 10.71588 | 32096 ft | 428 kts | 345° |
| 2026-04-25 15:52 | 43.73413 | 10.69786 | 32095 ft | 427 kts | 345° |
| 2026-04-25 15:52 | 43.79180 | 10.67995 | 32089 ft | 425 kts | 345° |
| 2026-04-25 15:53 | 43.82064 | 10.67098 | 31971 ft | 425 kts | 345° |
| 2026-04-25 15:53 | 43.84947 | 10.66201 | 31589 ft | 421 kts | 345° |
| 2026-04-25 15:53 | 43.87793 | 10.65315 | 31103 ft | 418 kts | 345° |
| 2026-04-25 15:53 | 43.90616 | 10.64435 | 30661 ft | 414 kts | 345° |
| 2026-04-25 15:54 | 43.93413 | 10.63562 | 30188 ft | 410 kts | 345° |
| 2026-04-25 15:54 | 43.96183 | 10.62696 | 29663 ft | 406 kts | 345° |
| 2026-04-25 15:54 | 43.98927 | 10.61838 | 29159 ft | 402 kts | 345° |
| 2026-04-25 15:54 | 44.01635 | 10.60991 | 28668 ft | 397 kts | 345° |
| 2026-04-25 15:55 | 44.04315 | 10.60151 | 28172 ft | 393 kts | 344° |
| 2026-04-25 15:55 | 44.06971 | 10.59318 | 27697 ft | 390 kts | 344° |
| 2026-04-25 15:55 | 44.09604 | 10.58491 | 27207 ft | 386 kts | 344° |
| 2026-04-25 15:55 | 44.12215 | 10.57670 | 26748 ft | 383 kts | 344° |
| 2026-04-25 15:56 | 44.14810 | 10.56853 | 26259 ft | 381 kts | 344° |
| 2026-04-25 15:56 | 44.17388 | 10.56041 | 25801 ft | 379 kts | 344° |
| 2026-04-25 15:56 | 44.19089 | 10.55505 | 25470 ft | 377 kts | 344° |
| 2026-04-25 15:56 | 44.21606 | 10.54711 | 25038 ft | 375 kts | 344° |
| 2026-04-25 15:57 | 44.24141 | 10.53911 | 24566 ft | 373 kts | 344° |
| 2026-04-25 15:57 | 44.26666 | 10.53114 | 24101 ft | 371 kts | 343° |
| 2026-04-25 15:57 | 44.29182 | 10.52318 | 23612 ft | 370 kts | 343° |
| 2026-04-25 15:57 | 44.31688 | 10.51524 | 23084 ft | 368 kts | 343° |
| 2026-04-25 15:58 | 44.34179 | 10.50735 | 22574 ft | 366 kts | 343° |
| 2026-04-25 15:58 | 44.36650 | 10.49952 | 22091 ft | 363 kts | 343° |
| 2026-04-25 15:58 | 44.39099 | 10.49176 | 21622 ft | 360 kts | 343° |
| 2026-04-25 15:58 | 44.41535 | 10.48403 | 21161 ft | 357 kts | 343° |
| 2026-04-25 15:59 | 44.43947 | 10.47636 | 20708 ft | 354 kts | 343° |
| 2026-04-25 15:59 | 44.46342 | 10.46874 | 20242 ft | 352 kts | 343° |
| 2026-04-25 15:59 | 44.48728 | 10.46114 | 19781 ft | 350 kts | 343° |
| 2026-04-25 15:59 | 44.51099 | 10.45358 | 19334 ft | 348 kts | 343° |
| 2026-04-25 16:00 | 44.53458 | 10.44606 | 18869 ft | 347 kts | 343° |
| 2026-04-25 16:00 | 44.55017 | 10.44108 | 18550 ft | 347 kts | 343° |
| 2026-04-25 16:00 | 44.58165 | 10.43101 | 17875 ft | 346 kts | 343° |
| 2026-04-25 16:00 | 44.60510 | 10.42351 | 17379 ft | 344 kts | 343° |
| 2026-04-25 16:01 | 44.62834 | 10.41608 | 16918 ft | 341 kts | 343° |
| 2026-04-25 16:01 | 44.65143 | 10.40869 | 16447 ft | 339 kts | 343° |
| 2026-04-25 16:01 | 44.67430 | 10.40137 | 16004 ft | 336 kts | 343° |
| 2026-04-25 16:01 | 44.69702 | 10.39408 | 15556 ft | 333 kts | 344° |
| 2026-04-25 16:02 | 44.71881 | 10.38523 | 15107 ft | 328 kts | 335° |
| 2026-04-25 16:02 | 44.73871 | 10.37025 | 14665 ft | 323 kts | 324° |
| 2026-04-25 16:02 | 44.75734 | 10.35284 | 14238 ft | 320 kts | 324° |
| 2026-04-25 16:02 | 44.77586 | 10.33549 | 13790 ft | 319 kts | 324° |
| 2026-04-25 16:03 | 44.79435 | 10.31839 | 13298 ft | 317 kts | 324° |
| 2026-04-25 16:03 | 44.81278 | 10.30152 | 12828 ft | 315 kts | 327° |
| 2026-04-25 16:03 | 44.83289 | 10.28975 | 12440 ft | 314 kts | 346° |
| 2026-04-25 16:03 | 44.85416 | 10.28431 | 12046 ft | 310 kts | 348° |
| 2026-04-25 16:04 | 44.87541 | 10.27957 | 11620 ft | 308 kts | 349° |
| 2026-04-25 16:04 | 44.89654 | 10.27490 | 11188 ft | 307 kts | 349° |
| 2026-04-25 16:04 | 44.91753 | 10.27014 | 10762 ft | 305 kts | 348° |
| 2026-04-25 16:04 | 44.93843 | 10.26530 | 10354 ft | 303 kts | 348° |
| 2026-04-25 16:05 | 44.95881 | 10.26052 | 10205 ft | 291 kts | 348° |
| 2026-04-25 16:05 | 44.97845 | 10.25587 | 10057 ft | 281 kts | 348° |
| 2026-04-25 16:05 | 45.01634 | 10.24683 | 9437 ft | 274 kts | 348° |
| 2026-04-25 16:06 | 45.03530 | 10.24490 | 9064 ft | 276 kts | 7° |
| 2026-04-25 16:06 | 45.05327 | 10.25422 | 8723 ft | 278 kts | 31° |
| 2026-04-25 16:06 | 45.06844 | 10.27127 | 8385 ft | 279 kts | 39° |
| 2026-04-25 16:06 | 45.08289 | 10.28956 | 8013 ft | 279 kts | 40° |
| 2026-04-25 16:07 | 45.09724 | 10.30793 | 7668 ft | 278 kts | 40° |
| 2026-04-25 16:07 | 45.10675 | 10.32003 | 7447 ft | 277 kts | 40° |
| 2026-04-25 16:07 | 45.12576 | 10.34396 | 6983 ft | 271 kts | 39° |
| 2026-04-25 16:07 | 45.13989 | 10.36165 | 6573 ft | 270 kts | 39° |
| 2026-04-25 16:08 | 45.15397 | 10.37921 | 6169 ft | 269 kts | 39° |
| 2026-04-25 16:08 | 45.16798 | 10.39682 | 5761 ft | 270 kts | 43° |
| 2026-04-25 16:08 | 45.17796 | 10.41918 | 5419 ft | 271 kts | 73° |
| 2026-04-25 16:08 | 45.17896 | 10.44505 | 5344 ft | 260 kts | 103° |
| 2026-04-25 16:09 | 45.17211 | 10.46790 | 5263 ft | 247 kts | 126° |
| 2026-04-25 16:09 | 45.16171 | 10.48643 | 5203 ft | 234 kts | 133° |
| 2026-04-25 16:09 | 45.15220 | 10.50481 | 4911 ft | 232 kts | 111° |
| 2026-04-25 16:09 | 45.15120 | 10.52709 | 4655 ft | 229 kts | 73° |
| 2026-04-25 16:10 | 45.15819 | 10.54551 | 4439 ft | 223 kts | 48° |
| 2026-04-25 16:10 | 45.16881 | 10.56144 | 4207 ft | 223 kts | 43° |
| 2026-04-25 16:10 | 45.17985 | 10.57674 | 4038 ft | 221 kts | 43° |
| 2026-04-25 16:10 | 45.19080 | 10.59197 | 4010 ft | 225 kts | 43° |
| 2026-04-25 16:11 | 45.20189 | 10.60752 | 3991 ft | 222 kts | 44° |
| 2026-04-25 16:11 | 45.21296 | 10.62263 | 3986 ft | 220 kts | 41° |
| 2026-04-25 16:11 | 45.22391 | 10.63770 | 4001 ft | 219 kts | 43° |
| 2026-04-25 16:11 | 45.23432 | 10.65260 | 3981 ft | 204 kts | 44° |
| 2026-04-25 16:12 | 45.24378 | 10.66642 | 3966 ft | 186 kts | 44° |
| 2026-04-25 16:12 | 45.25257 | 10.67926 | 3920 ft | 182 kts | 44° |
| 2026-04-25 16:12 | 45.26144 | 10.69228 | 3698 ft | 184 kts | 44° |
| 2026-04-25 16:12 | 45.26740 | 10.70102 | 3536 ft | 182 kts | 44° |
| 2026-04-25 16:13 | 45.27891 | 10.71787 | 3233 ft | 178 kts | 45° |
| 2026-04-25 16:13 | 45.28746 | 10.73038 | 3004 ft | 176 kts | 44° |
| 2026-04-25 16:13 | 45.29598 | 10.74283 | 2763 ft | 175 kts | 44° |
| 2026-04-25 16:13 | 45.30445 | 10.75516 | 2558 ft | 174 kts | 45° |
| 2026-04-25 16:14 | 45.31278 | 10.76739 | 2324 ft | 170 kts | 44° |
| 2026-04-25 16:14 | 45.32093 | 10.77929 | 2122 ft | 162 kts | 46° |
| 2026-04-25 16:14 | 45.32847 | 10.79037 | 1898 ft | 153 kts | 44° |
| 2026-04-25 16:14 | 45.33578 | 10.80102 | 1690 ft | 146 kts | 44° |
| 2026-04-25 16:15 | 45.34289 | 10.81142 | 1501 ft | 147 kts | 44° |
| 2026-04-25 16:15 | 45.35008 | 10.82195 | 1298 ft | 148 kts | 44° |
| 2026-04-25 16:15 | 45.35738 | 10.83254 | 1130 ft | 152 kts | 44° |
| 2026-04-25 16:15 | 45.36482 | 10.84340 | 929 ft | 152 kts | 45° |
| 2026-04-25 16:16 | 45.37204 | 10.85407 | 697 ft | 147 kts | 45° |
| 2026-04-25 16:16 | 45.37923 | 10.86451 | 487 ft | 148 kts | 45° |
| 2026-04-25 16:16 | 45.38646 | 10.87504 | 302 ft | 149 kts | 45° |
| 2026-04-25 16:16 | 45.39344 | 10.88520 | 239 ft | 134 kts | 46° |
| 2026-04-25 16:17 | 45.39908 | 10.89346 | 240 ft | 99 kts | 46° |
| 2026-04-25 16:17 | 45.40214 | 10.89793 | 245 ft | 37 kts | 46° |
| 2026-04-25 16:17 | 45.40295 | 10.90028 | 244 ft | 25 kts | 76° |
| 2026-04-25 16:17 | 45.40323 | 10.90188 | 242 ft | 2 kts | 75° |
| 2026-04-25 16:18 | 45.40329 | 10.90270 | 241 ft | 12 kts | 109° |
| 2026-04-25 16:18 | 45.40271 | 10.90359 | 241 ft | 12 kts | 134° |
| 2026-04-25 16:19 | 45.40288 | 10.90460 | 241 ft | 12 kts | 45° |
| 2026-04-25 16:19 | 45.40331 | 10.90529 | 241 ft | 5 kts | 67° |
| 2026-04-25 16:19 | 45.40318 | 10.90569 | 241 ft | 5 kts | 133° |
| 2026-04-25 16:20 | 45.40297 | 10.90598 | 241 ft | 0 kts | 135° |